Zeran (malta) — 9HHJ5 — position and weather

sailwx.info

Track history (hours):
 
Tides and Currents Weather Stations Pressure Air Temp Water Temp Dewpoint Dewpoint Depression Visibility Wind Speed Wind Dir Waves Ship Positions

Zeran (malta)

Last reported at 2014-Oct-24 11:33 UTC. Time now 2014-Oct-24 12:06 UTC.
Position N 44°17' E 008°56'.

Length 148 m; beam 24 m.

Type: Cargo ship. MMSI: 249846000.

Date/timePositionNaut miles runAvg speedWind from/ knotsBaromVisibWave heightAir tempDewpointWater temp
2014-Oct-24 11:33N 44°17' E 008°56'7 6.6
2014-Oct-24 10:33N 44°11' E 008°52'7 7.1
2014-Oct-24 09:33N 44°05' E 008°47'8 7.3
2014-Oct-24 08:30N 43°58' E 008°42'14 7.0
2014-Oct-24 06:33N 43°46' E 008°33'21 8.7
2014-Oct-24 04:12N 43°29' E 008°19'  
2014-Oct-21 17:32N 38°22' E 002°46'8111.5
2014-Oct-21 10:29N 37°24' E 001°35'1111.0
2014-Oct-21 09:29N 37°16' E 001°25'1311.5
2014-Oct-21 08:23N 37°06' E 001°14'1011.7
2014-Oct-21 07:32N 36°59' E 001°06'1212.0
2014-Oct-21 06:33N 36°51' E 000°56'2411.8
2014-Oct-21 04:30N 36°33' E 000°35'1112.0
2014-Oct-21 03:32N 36°25' E 000°25'66 2.1
2014-Oct-19 20:11N 37°14' E 001°21'8911.4
2014-Oct-19 12:26N 38°17' E 002°39'17111.4
2014-Oct-18 21:24N 40°21' E 005°12'2611.3
2014-Oct-18 19:08N 40°40' E 005°35'2011.1
2014-Oct-18 17:18N 40°54' E 005°53'810.6
2014-Oct-18 16:32N 41°00' E 006°01'19310.7
2014-Oct-17 22:23N 43°21' E 009°00'910.5
2014-Oct-17 21:33N 43°27' E 009°09'1010.4
2014-Oct-17 20:33N 43°34' E 009°18'1010.3
2014-Oct-17 19:33N 43°42' E 009°28'1110.8
2014-Oct-17 18:34N 43°50' E 009°38'10 9.8
2014-Oct-17 17:33N 43°57' E 009°47'9 9.1
2014-Oct-17 16:33N 44°06' E 009°51'1 0.6
2014-Oct-17 15:31N 44°07' E 009°50'0 0.0
2014-Oct-17 14:31N 44°07' E 009°50'0 0.0
2014-Oct-17 13:31N 44°07' E 009°50'0 0.0
2014-Oct-17 12:31N 44°07' E 009°50'0 0.0
2014-Oct-17 11:31N 44°07' E 009°50'0 0.0
2014-Oct-17 10:28N 44°07' E 009°50'0 0.0
2014-Oct-17 09:31N 44°07' E 009°50'0 0.0
2014-Oct-17 08:31N 44°07' E 009°50'0 0.0
2014-Oct-17 07:31N 44°07' E 009°50'0 0.0
2014-Oct-17 06:31N 44°07' E 009°50'0 0.0
2014-Oct-17 05:31N 44°07' E 009°50'0 0.0
2014-Oct-17 04:31N 44°07' E 009°50'0 0.0
2014-Oct-17 03:31N 44°07' E 009°50'0 0.0
2014-Oct-17 02:31N 44°07' E 009°50'0 0.0
2014-Oct-17 01:31N 44°07' E 009°50'0 0.0
2014-Oct-17 00:31N 44°07' E 009°50'0 0.0
2014-Oct-16 23:31N 44°07' E 009°50'0 0.0
2014-Oct-16 22:31N 44°07' E 009°50'0 0.0
2014-Oct-16 21:31N 44°07' E 009°50'0 0.0
2014-Oct-16 20:31N 44°07' E 009°50'0 0.0
2014-Oct-16 19:31N 44°07' E 009°50'0 0.0
2014-Oct-16 18:28N 44°07' E 009°50'0 0.0
2014-Oct-16 17:31N 44°07' E 009°50'0 0.0
2014-Oct-16 16:31N 44°07' E 009°50'0 0.0
2014-Oct-16 15:31N 44°07' E 009°50'0 0.0
2014-Oct-16 14:31N 44°07' E 009°50'0 0.0
2014-Oct-16 13:31N 44°07' E 009°50'3 3.2
2014-Oct-16 12:33N 44°04' E 009°52'5 5.2
2014-Oct-16 11:33N 43°60' E 009°47'1010.1
2014-Oct-16 10:33N 44°04' E 009°34'1010.2
2014-Oct-16 09:33N 44°09' E 009°22'10 9.9
2014-Oct-16 08:33N 44°15' E 009°10'9 9.6
2014-Oct-16 07:33N 44°19' E 008°59'6 1.6
2014-Oct-16 03:33N 44°24' E 008°53'0 0.0
2014-Oct-16 02:27N 44°24' E 008°53'0 0.0
2014-Oct-16 01:33N 44°24' E 008°53'0 0.0
2014-Oct-15 23:30N 44°24' E 008°53'0 0.0
2014-Oct-15 19:06N 44°24' E 008°53'0 0.0
2014-Oct-15 15:12N 44°24' E 008°53'0 0.0
2014-Oct-15 14:18N 44°24' E 008°53'0 0.0
2014-Oct-15 12:18N 44°24' E 008°53'0 0.0
2014-Oct-15 11:30N 44°24' E 008°53'0 0.0
2014-Oct-15 09:06N 44°24' E 008°53'0 0.0
2014-Oct-15 07:30N 44°24' E 008°53'0 0.0
2014-Oct-15 05:18N 44°24' E 008°53'0 0.0
2014-Oct-15 04:06N 44°24' E 008°53'0 0.0
2014-Oct-15 03:33N 44°24' E 008°53'0 0.0
2014-Oct-15 02:30N 44°24' E 008°53'0 0.0
2014-Oct-15 01:12N 44°24' E 008°53'0 0.0
2014-Oct-15 00:33N 44°24' E 008°53'0 0.0
2014-Oct-14 23:24N 44°24' E 008°53'0 0.0
2014-Oct-14 20:24N 44°24' E 008°53'0 0.0
2014-Oct-14 19:15N 44°24' E 008°53'0 0.0
2014-Oct-14 18:18N 44°24' E 008°53'0 0.0
2014-Oct-14 15:30N 44°24' E 008°53'0 0.0
2014-Oct-14 13:30N 44°24' E 008°53'0 0.0
2014-Oct-14 12:12N 44°24' E 008°53'  
Track history (hours):
 
Tides and Currents Weather Stations Pressure Air Temp Water Temp Dewpoint Dewpoint Depression Visibility Wind Speed Wind Dir Waves Ship Positions

Zeran (malta)

Last reported at 2014-Oct-24 11:33 UTC. Time now 2014-Oct-24 12:06 UTC.
Position N 44°17' E 008°56'.

Length 148 m; beam 24 m.

Type: Cargo ship. MMSI: 249846000.

Date/timePositionNaut miles runAvg speedWind from/ knotsBaromVisibWave heightAir tempDewpointWater temp
2014-Oct-24 11:33N 44°17' E 008°56'7 6.6
2014-Oct-24 10:33N 44°11' E 008°52'7 7.1
2014-Oct-24 09:33N 44°05' E 008°47'8 7.3
2014-Oct-24 08:30N 43°58' E 008°42'14 7.0
2014-Oct-24 06:33N 43°46' E 008°33'21 8.7
2014-Oct-24 04:12N 43°29' E 008°19'  
2014-Oct-21 17:32N 38°22' E 002°46'8111.5
2014-Oct-21 10:29N 37°24' E 001°35'1111.0
2014-Oct-21 09:29N 37°16' E 001°25'1311.5
2014-Oct-21 08:23N 37°06' E 001°14'1011.7
2014-Oct-21 07:32N 36°59' E 001°06'1212.0
2014-Oct-21 06:33N 36°51' E 000°56'2411.8
2014-Oct-21 04:30N 36°33' E 000°35'1112.0
2014-Oct-21 03:32N 36°25' E 000°25'66 2.1
2014-Oct-19 20:11N 37°14' E 001°21'8911.4
2014-Oct-19 12:26N 38°17' E 002°39'17111.4
2014-Oct-18 21:24N 40°21' E 005°12'2611.3
2014-Oct-18 19:08N 40°40' E 005°35'2011.1
2014-Oct-18 17:18N 40°54' E 005°53'810.6
2014-Oct-18 16:32N 41°00' E 006°01'19310.7
2014-Oct-17 22:23N 43°21' E 009°00'910.5
2014-Oct-17 21:33N 43°27' E 009°09'1010.4
2014-Oct-17 20:33N 43°34' E 009°18'1010.3
2014-Oct-17 19:33N 43°42' E 009°28'1110.8
2014-Oct-17 18:34N 43°50' E 009°38'10 9.8
2014-Oct-17 17:33N 43°57' E 009°47'9 9.1
2014-Oct-17 16:33N 44°06' E 009°51'1 0.6
2014-Oct-17 15:31N 44°07' E 009°50'0 0.0
2014-Oct-17 14:31N 44°07' E 009°50'0 0.0
2014-Oct-17 13:31N 44°07' E 009°50'0 0.0
2014-Oct-17 12:31N 44°07' E 009°50'0 0.0
2014-Oct-17 11:31N 44°07' E 009°50'0 0.0
2014-Oct-17 10:28N 44°07' E 009°50'0 0.0
2014-Oct-17 09:31N 44°07' E 009°50'0 0.0
2014-Oct-17 08:31N 44°07' E 009°50'0 0.0
2014-Oct-17 07:31N 44°07' E 009°50'0 0.0
2014-Oct-17 06:31N 44°07' E 009°50'0 0.0
2014-Oct-17 05:31N 44°07' E 009°50'0 0.0
2014-Oct-17 04:31N 44°07' E 009°50'0 0.0
2014-Oct-17 03:31N 44°07' E 009°50'0 0.0
2014-Oct-17 02:31N 44°07' E 009°50'0 0.0
2014-Oct-17 01:31N 44°07' E 009°50'0 0.0
2014-Oct-17 00:31N 44°07' E 009°50'0 0.0
2014-Oct-16 23:31N 44°07' E 009°50'0 0.0
2014-Oct-16 22:31N 44°07' E 009°50'0 0.0
2014-Oct-16 21:31N 44°07' E 009°50'0 0.0
2014-Oct-16 20:31N 44°07' E 009°50'0 0.0
2014-Oct-16 19:31N 44°07' E 009°50'0 0.0
2014-Oct-16 18:28N 44°07' E 009°50'0 0.0
2014-Oct-16 17:31N 44°07' E 009°50'0 0.0
2014-Oct-16 16:31N 44°07' E 009°50'0 0.0
2014-Oct-16 15:31N 44°07' E 009°50'0 0.0
2014-Oct-16 14:31N 44°07' E 009°50'0 0.0
2014-Oct-16 13:31N 44°07' E 009°50'3 3.2
2014-Oct-16 12:33N 44°04' E 009°52'5 5.2
2014-Oct-16 11:33N 43°60' E 009°47'1010.1
2014-Oct-16 10:33N 44°04' E 009°34'1010.2
2014-Oct-16 09:33N 44°09' E 009°22'10 9.9
2014-Oct-16 08:33N 44°15' E 009°10'9 9.6
2014-Oct-16 07:33N 44°19' E 008°59'6 1.6
2014-Oct-16 03:33N 44°24' E 008°53'0 0.0
2014-Oct-16 02:27N 44°24' E 008°53'0 0.0
2014-Oct-16 01:33N 44°24' E 008°53'0 0.0
2014-Oct-15 23:30N 44°24' E 008°53'0 0.0
2014-Oct-15 19:06N 44°24' E 008°53'0 0.0
2014-Oct-15 15:12N 44°24' E 008°53'0 0.0
2014-Oct-15 14:18N 44°24' E 008°53'0 0.0
2014-Oct-15 12:18N 44°24' E 008°53'0 0.0
2014-Oct-15 11:30N 44°24' E 008°53'0 0.0
2014-Oct-15 09:06N 44°24' E 008°53'0 0.0
2014-Oct-15 07:30N 44°24' E 008°53'0 0.0
2014-Oct-15 05:18N 44°24' E 008°53'0 0.0
2014-Oct-15 04:06N 44°24' E 008°53'0 0.0
2014-Oct-15 03:33N 44°24' E 008°53'0 0.0
2014-Oct-15 02:30N 44°24' E 008°53'0 0.0
2014-Oct-15 01:12N 44°24' E 008°53'0 0.0
2014-Oct-15 00:33N 44°24' E 008°53'0 0.0
2014-Oct-14 23:24N 44°24' E 008°53'0 0.0
2014-Oct-14 20:24N 44°24' E 008°53'0 0.0
2014-Oct-14 19:15N 44°24' E 008°53'0 0.0
2014-Oct-14 18:18N 44°24' E 008°53'0 0.0
2014-Oct-14 15:30N 44°24' E 008°53'0 0.0
2014-Oct-14 13:30N 44°24' E 008°53'0 0.0
2014-Oct-14 12:12N 44°24' E 008°53'  

Dump ship's entire track history